Alto Araguaia, Brazil
Current Conditions -  °F | °C
As of 11:00 AM on Wednesday 22 Oct 2014 (Local Time) from SBCY Reporting Station
Clear Clear  
Wind Chill: 93°   Ceiling: Unl
Heat Index: 97°   Visibility: 6mi
Dew Point: 68°   Wind: 9mph
Humidity: 44%   Direction: 120°ESE
Pressure: 29.94"   Gusts: NA
Location:  17.31°S, 53.22°W
Report Text: SBCY 221400Z 12008KT CAVOK 34/20 Q1014
Loading
Personal Weather Stations






























Interactive Weather Map New forecast layout! Learn more

10-Day Weather Forecast

Advertisements
Track Severe Weather on mobile